Time;durP1;ratioP1;P1;durP2;ratioP2;P2;SDS_P1;SDS_P2;PMS_P1;PMS_P2;Temp;Humidity;BMP_temperature;BMP_pressure;BME280_temperature;BME280_humidity;BME280_pressure;Samples;Min_cycle;Max_cycle;Signal;HPM_P1;HPM_P2
2024/02/07 00:01:29;;;;;;;;;;;;;;;;;;5061069;28;20385;-76
2024/02/07 00:03:55;;;;;;;;;;;;;;;;;;5077815;28;20415;-74
2024/02/07 00:06:22;;;;;;;;;;;;;;;;;;5067536;28;20137;-74
2024/02/07 00:08:49;;;;;;;;;;;;;;;;;;5085870;28;19928;-74
2024/02/07 00:11:15;;;;;;;;;;;;;;;;;;5074091;28;20017;-74
2024/02/07 00:13:42;;;;;;;;;;;;;;;;;;5084945;28;19964;-74
2024/02/07 00:16:08;;;;;;;;;;;;;;;;;;5062341;28;20021;-76
2024/02/07 00:18:35;;;;;;;;;;;;;;;;;;5080712;28;19929;-74
2024/02/07 00:21:02;;;;;;;;;;;;;;;;;;5083383;28;20010;-75
2024/02/07 00:23:28;;;;;;;;;;;;;;;;;;5063188;28;20377;-76
2024/02/07 00:25:54;;;;;;;;;;;;;;;;;;5060708;28;20329;-74
2024/02/07 00:28:21;;;;;;;;;;;;;;;;;;5080447;28;19931;-74
2024/02/07 00:30:47;;;;;;;;;;;;;;;;;;5084478;28;19924;-75
2024/02/07 00:33:14;;;;;;;;;;;;;;;;;;5084328;28;19934;-76
2024/02/07 00:35:40;;;;;;;;;;;;;;;;;;5083341;28;19974;-76
2024/02/07 00:38:06;;;;;;;;;;;;;;;;;;5077486;28;20668;-78
2024/02/07 00:40:33;;;;;;;;;;;;;;;;;;5085861;28;19935;-75
2024/02/07 00:43:00;;;;;;;;;;;;;;;;;;5062534;28;19924;-76
2024/02/07 00:45:26;;;;;;;;;;;;;;;;;;5064997;28;20394;-76
2024/02/07 00:47:52;;;;;;;;;;;;;;;;;;5073942;28;19970;-76
2024/02/07 00:50:19;;;;;;;;;;;;;;;;;;5077555;28;19936;-77
2024/02/07 00:52:45;;;;;;;;;;;;;;;;;;5075218;28;20427;-77
2024/02/07 00:55:12;;;;;;;;;;;;;;;;;;5071261;28;19932;-74
2024/02/07 00:57:38;;;;;;;;;;;;;;;;;;5075370;28;19925;-77
2024/02/07 01:00:05;;;;;;;;;;;;;;;;;;5084293;28;19924;-76
2024/02/07 01:02:31;;;;;;;;;;;;;;;;;;5073132;28;19930;-78
2024/02/07 01:04:58;;;;;;;;;;;;;;;;;;5075548;28;19983;-76
2024/02/07 01:07:25;;;;;;;;;;;;;;;;;;5074146;28;20377;-77
2024/02/07 01:09:51;;;;;;;;;;;;;;;;;;5078769;28;19924;-75
2024/02/07 01:12:19;;;;;;;;;;;;;;;;;;5072482;28;19929;-75
2024/02/07 01:14:45;;;;;;;;;;;;;;;;;;5073416;28;20375;-77
2024/02/07 01:17:11;;;;;;;;;;;;;;;;;;5071484;28;20019;-77
2024/02/07 01:19:38;;;;;;;;;;;;;;;;;;5071456;28;19925;-75
2024/02/07 01:22:05;;;;;;;;;;;;;;;;;;5086274;28;19931;-77
2024/02/07 01:24:32;;;;;;;;;;;;;;;;;;5078487;28;19929;-76
2024/02/07 01:26:58;;;;;;;;;;;;;;;;;;5077335;28;19924;-78
2024/02/07 01:29:24;;;;;;;;;;;;;;;;;;5072547;28;19929;-76
2024/02/07 01:31:51;;;;;;;;;;;;;;;;;;5079570;28;19924;-77
2024/02/07 01:34:18;;;;;;;;;;;;;;;;;;5075430;28;19951;-77
2024/02/07 01:36:45;;;;;;;;;;;;;;;;;;5070365;28;19932;-77
2024/02/07 01:39:11;;;;;;;;;;;;;;;;;;5076989;28;19928;-77
2024/02/07 01:41:56;;;;;;;;;;;;;;;;;;5081372;28;20023;-76
2024/02/07 01:44:23;;;;;;;;;;;;;;;;;;5078302;28;19929;-76
2024/02/07 01:46:49;;;;;;;;;;;;;;;;;;5083294;28;19924;-74
2024/02/07 01:49:16;;;;;;;;;;;;;;;;;;5074613;28;20400;-74
2024/02/07 01:51:42;;;;;;;;;;;;;;;;;;5083679;28;19931;-77
2024/02/07 01:54:09;;;;;;;;;;;;;;;;;;5074817;28;19952;-75
2024/02/07 01:56:35;;;;;;;;;;;;;;;;;;5080444;28;20027;-76
2024/02/07 01:59:02;;;;;;;;;;;;;;;;;;5081184;28;19928;-76
2024/02/07 02:01:30;;;;;;;;;;;;;;;;;;5081038;28;19929;-76
2024/02/07 02:03:57;;;;;;;;;;;;;;;;;;5078860;28;19924;-76
2024/02/07 02:06:23;;;;;;;;;;;;;;;;;;5076275;28;20496;-77
2024/02/07 02:08:49;;;;;;;;;;;;;;;;;;5061701;28;19924;-75
2024/02/07 02:11:16;;;;;;;;;;;;;;;;;;5078404;28;19970;-76
2024/02/07 02:13:42;;;;;;;;;;;;;;;;;;5074936;28;19934;-77
2024/02/07 02:16:08;;;;;;;;;;;;;;;;;;5077320;28;19924;-77
2024/02/07 02:18:35;;;;;;;;;;;;;;;;;;5078162;28;19928;-75
2024/02/07 02:21:01;;;;;;;;;;;;;;;;;;5081132;28;19924;-77
2024/02/07 02:23:28;;;;;;;;;;;;;;;;;;5077451;28;19931;-77
2024/02/07 02:25:55;;;;;;;;;;;;;;;;;;5081803;28;19935;-77
2024/02/07 02:28:23;;;;;;;;;;;;;;;;;;5073690;28;19925;-75
2024/02/07 02:30:53;;;;;;;;;;;;;;;;;;5077603;28;19924;-77
2024/02/07 02:33:20;;;;;;;;;;;;;;;;;;5076574;28;20302;-76
2024/02/07 02:35:46;;;;;;;;;;;;;;;;;;5085179;28;20016;-76
2024/02/07 02:38:15;;;;;;;;;;;;;;;;;;5079704;28;19935;-76
2024/02/07 02:40:43;;;;;;;;;;;;;;;;;;5080931;28;19931;-77
2024/02/07 02:43:12;;;;;;;;;;;;;;;;;;5060239;28;19929;-76
2024/02/07 02:45:39;;;;;;;;;;;;;;;;;;5066028;28;19925;-75
2024/02/07 02:48:05;;;;;;;;;;;;;;;;;;5073015;28;19929;-76
2024/02/07 02:50:34;;;;;;;;;;;;;;;;;;5080308;28;19931;-75
2024/02/07 02:53:00;;;;;;;;;;;;;;;;;;5059348;28;19924;-78
2024/02/07 02:55:27;;;;;;;;;;;;;;;;;;5070523;28;20286;-78
2024/02/07 02:57:59;;;;;;;;;;;;;;;;;;5073245;28;19974;-75
2024/02/07 03:00:26;;;;;;;;;;;;;;;;;;5057979;28;19932;-74
2024/02/07 03:02:55;;;;;;;;;;;;;;;;;;5069015;28;20758;-74
2024/02/07 03:05:38;;;;;;;;;;;;;;;;;;5081171;28;19978;-75
2024/02/07 03:08:15;;;;;;;;;;;;;;;;;;5073171;28;20460;-76
2024/02/07 03:10:42;;;;;;;;;;;;;;;;;;5077087;28;19924;-77
2024/02/07 03:13:08;;;;;;;;;;;;;;;;;;5061399;28;19977;-75
2024/02/07 03:15:35;;;;;;;;;;;;;;;;;;5081757;28;19932;-75
2024/02/07 03:18:01;;;;;;;;;;;;;;;;;;5076798;28;20423;-76
2024/02/07 03:20:28;;;;;;;;;;;;;;;;;;5066879;28;20414;-74
2024/02/07 03:22:54;;;;;;;;;;;;;;;;;;5072002;28;19928;-78
2024/02/07 03:25:21;;;;;;;;;;;;;;;;;;5067513;28;19928;-76
2024/02/07 03:27:48;;;;;;;;;;;;;;;;;;5077360;28;19944;-75
2024/02/07 03:30:21;;;;;;;;;;;;;;;;;;5080348;28;19942;-75
2024/02/07 03:32:47;;;;;;;;;;;;;;;;;;5074905;28;20385;-75
2024/02/07 03:35:14;;;;;;;;;;;;;;;;;;5078249;28;19924;-75
2024/02/07 03:37:41;;;;;;;;;;;;;;;;;;5081102;28;19925;-75
2024/02/07 03:40:13;;;;;;;;;;;;;;;;;;5076814;28;19950;-74
2024/02/07 03:42:41;;;;;;;;;;;;;;;;;;5082293;28;19935;-74
2024/02/07 03:45:07;;;;;;;;;;;;;;;;;;5067160;28;19935;-74
2024/02/07 03:47:34;;;;;;;;;;;;;;;;;;5082800;28;20024;-75
2024/02/07 03:50:05;;;;;;;;;;;;;;;;;;5079124;28;19944;-78
2024/02/07 03:52:31;;;;;;;;;;;;;;;;;;5063586;28;20461;-76
2024/02/07 03:54:58;;;;;;;;;;;;;;;;;;5076034;28;19924;-77
2024/02/07 03:57:24;;;;;;;;;;;;;;;;;;5084049;28;19931;-76
2024/02/07 03:59:50;;;;;;;;;;;;;;;;;;5082189;28;20338;-76
2024/02/07 04:02:23;;;;;;;;;;;;;;;;;;5066377;28;19978;-77
2024/02/07 04:04:49;;;;;;;;;;;;;;;;;;5082627;28;20392;-76
2024/02/07 04:07:16;;;;;;;;;;;;;;;;;;5059899;28;20015;-76
2024/02/07 04:09:43;;;;;;;;;;;;;;;;;;5082052;28;19924;-77
2024/02/07 05:17:15;;;;;;;;;;;;;;;;;;5075270;28;20278;-78
2024/02/07 05:19:42;;;;;;;;;;;;;;;;;;5069233;28;20011;-78
2024/02/07 05:22:08;;;;;;;;;;;;;;;;;;5073249;28;19924;-82
2024/02/07 05:24:36;;;;;;;;;;;;;;;;;;5080328;28;19959;-81
2024/02/07 05:27:06;;;;;;;;;;;;;;;;;;5082948;28;19947;-81
2024/02/07 05:29:32;;;;;;;;;;;;;;;;;;5079038;28;19924;-80
2024/02/07 05:31:59;;;;;;;;;;;;;;;;;;5064642;28;19936;-81
2024/02/07 05:34:26;;;;;;;;;;;;;;;;;;5077708;28;20307;-82
2024/02/07 05:36:52;;;;;;;;;;;;;;;;;;5064062;28;20336;-83
2024/02/07 05:39:19;;;;;;;;;;;;;;;;;;5082432;28;19956;-82
2024/02/07 05:41:45;;;;;;;;;;;;;;;;;;5079971;28;20419;-80
2024/02/07 05:44:12;;;;;;;;;;;;;;;;;;5078959;28;20430;-81
2024/02/07 05:46:39;;;;;;;;;;;;;;;;;;5075008;28;19960;-82
2024/02/07 05:49:05;;;;;;;;;;;;;;;;;;5080452;28;20328;-83
2024/02/07 05:51:35;;;;;;;;;;;;;;;;;;5079062;28;19925;-83
2024/02/07 05:54:01;;;;;;;;;;;;;;;;;;5079284;28;19928;-80
2024/02/07 05:56:28;;;;;;;;;;;;;;;;;;5062798;28;20393;-84
2024/02/07 05:58:54;;;;;;;;;;;;;;;;;;5082848;28;19924;-83
2024/02/07 06:01:21;;;;;;;;;;;;;;;;;;5075159;28;19931;-83
2024/02/07 06:03:52;;;;;;;;;;;;;;;;;;5077852;28;19925;-84
2024/02/07 06:06:19;;;;;;;;;;;;;;;;;;5084081;28;19924;-84
2024/02/07 06:08:47;;;;;;;;;;;;;;;;;;5082583;28;20047;-84
2024/02/07 06:11:13;;;;;;;;;;;;;;;;;;5075220;28;19928;-85
2024/02/07 06:13:40;;;;;;;;;;;;;;;;;;5078265;28;19932;-85
2024/02/07 06:16:06;;;;;;;;;;;;;;;;;;5081840;28;20668;-83
2024/02/07 06:18:33;;;;;;;;;;;;;;;;;;5077188;28;19978;-85
2024/02/07 06:20:59;;;;;;;;;;;;;;;;;;5083909;28;19951;-83
2024/02/07 06:23:26;;;;;;;;;;;;;;;;;;5084160;28;19928;-84
2024/02/07 06:25:52;;;;;;;;;;;;;;;;;;5081384;28;19924;-85
2024/02/07 06:28:18;;;;;;;;;;;;;;;;;;5076979;28;19970;-84
2024/02/07 06:30:45;;;;;;;;;;;;;;;;;;5076673;28;20748;-86
2024/02/07 06:33:11;;;;;;;;;;;;;;;;;;5082614;28;20023;-85
2024/02/07 06:35:38;;;;;;;;;;;;;;;;;;5077538;28;20385;-84
2024/02/07 06:38:04;;;;;;;;;;;;;;;;;;5059317;28;20459;-84
2024/02/07 06:40:31;;;;;;;;;;;;;;;;;;5054475;28;19928;-85
2024/02/07 06:42:57;;;;;;;;;;;;;;;;;;5080968;28;19924;-83
2024/02/07 06:45:24;;;;;;;;;;;;;;;;;;5072933;28;19924;-85
2024/02/07 06:47:50;;;;;;;;;;;;;;;;;;5079364;28;19924;-85
2024/02/07 06:50:17;;;;;;;;;;;;;;;;;;5067611;28;20030;-85
2024/02/07 06:52:45;;;;;;;;;;;;;;;;;;5061613;28;19928;-85
2024/02/07 06:55:12;;;;;;;;;;;;;;;;;;5074379;28;20020;-84
2024/02/07 06:57:38;;;;;;;;;;;;;;;;;;5078067;28;19971;-85
2024/02/07 07:00:05;;;;;;;;;;;;;;;;;;5073345;28;19924;-85
2024/02/07 07:02:31;;;;;;;;;;;;;;;;;;5074043;28;20396;-86
2024/02/07 07:04:57;;;;;;;;;;;;;;;;;;5062763;28;20246;-85
2024/02/07 07:07:24;;;;;;;;;;;;;;;;;;5073171;28;20012;-84
2024/02/07 07:09:50;;;;;;;;;;;;;;;;;;5053907;28;19931;-86
2024/02/07 07:12:17;;;;;;;;;;;;;;;;;;5071404;28;19936;-84
2024/02/07 07:14:45;;;;;;;;;;;;;;;;;;5077817;28;19924;-86
2024/02/07 07:17:11;;;;;;;;;;;;;;;;;;5064873;28;19951;-85
2024/02/07 07:19:39;;;;;;;;;;;;;;;;;;5072344;28;19924;-85
2024/02/07 07:22:05;;;;;;;;;;;;;;;;;;5079789;28;20403;-86
2024/02/07 07:24:32;;;;;;;;;;;;;;;;;;5081673;28;20001;-83
2024/02/07 07:26:58;;;;;;;;;;;;;;;;;;5075661;28;20018;-82
2024/02/07 07:29:28;;;;;;;;;;;;;;;;;;5075723;28;19931;-85
2024/02/07 07:31:54;;;;;;;;;;;;;;;;;;5081022;28;19967;-83
2024/02/07 07:34:21;;;;;;;;;;;;;;;;;;5059797;28;20015;-84
2024/02/07 07:36:50;;;;;;;;;;;;;;;;;;5080296;28;19939;-84
2024/02/07 07:39:17;;;;;;;;;;;;;;;;;;5079900;28;19936;-84
2024/02/07 07:41:46;;;;;;;;;;;;;;;;;;5080670;28;19928;-85
2024/02/07 07:44:14;;;;;;;;;;;;;;;;;;5079861;28;20384;-85
2024/02/07 07:46:41;;;;;;;;;;;;;;;;;;5073029;28;19963;-84
2024/02/07 07:49:09;;;;;;;;;;;;;;;;;;5086384;28;19947;-83
2024/02/07 07:51:36;;;;;;;;;;;;;;;;;;5062198;28;19925;-81
2024/02/07 07:54:03;;;;;;;;;;;;;;;;;;5081360;28;19947;-85
2024/02/07 07:56:31;;;;;;;;;;;;;;;;;;5075448;28;20015;-85
2024/02/07 07:58:57;;;;;;;;;;;;;;;;;;5078991;28;19928;-86
2024/02/07 08:01:24;;;;;;;;;;;;;;;;;;5077033;28;19935;-86
2024/02/07 08:03:51;;;;;;;;;;;;;;;;;;5089103;28;19924;-85
2024/02/07 08:06:17;;;;;;;;;;;;;;;;;;5085393;28;20312;-84
2024/02/07 08:08:44;;;;;;;;;;;;;;;;;;5081340;28;19964;-84
2024/02/07 08:11:10;;;;;;;;;;;;;;;;;;5083125;28;20276;-85
2024/02/07 08:13:37;;;;;;;;;;;;;;;;;;5081416;28;19939;-86
2024/02/07 08:16:03;;;;;;;;;;;;;;;;;;5078461;28;19924;-82
2024/02/07 08:18:30;;;;;;;;;;;;;;;;;;5081574;28;19928;-84
2024/02/07 08:20:56;;;;;;;;;;;;;;;;;;5077536;28;19947;-84
2024/02/07 08:23:23;;;;;;;;;;;;;;;;;;5079435;28;19925;-85
2024/02/07 08:25:49;;;;;;;;;;;;;;;;;;5075255;28;19925;-82
2024/02/07 08:28:15;;;;;;;;;;;;;;;;;;5080520;28;20016;-85
2024/02/07 08:30:42;;;;;;;;;;;;;;;;;;5079957;28;19931;-86
2024/02/07 08:33:08;;;;;;;;;;;;;;;;;;5079701;28;19928;-84
2024/02/07 08:35:35;;;;;;;;;;;;;;;;;;5079737;28;19924;-84
2024/02/07 08:38:02;;;;;;;;;;;;;;;;;;5081466;28;20007;-85
2024/02/07 08:40:28;;;;;;;;;;;;;;;;;;5080917;28;19932;-86
2024/02/07 08:42:55;;;;;;;;;;;;;;;;;;5080562;28;19924;-83
2024/02/07 08:45:21;;;;;;;;;;;;;;;;;;5076330;28;20389;-85
2024/02/07 08:47:48;;;;;;;;;;;;;;;;;;5079682;28;20368;-85
2024/02/07 08:50:14;;;;;;;;;;;;;;;;;;5078048;28;19924;-86
2024/02/07 08:52:41;;;;;;;;;;;;;;;;;;5077971;28;20035;-84
2024/02/07 08:55:08;;;;;;;;;;;;;;;;;;5079107;28;19929;-85
2024/02/07 08:57:34;;;;;;;;;;;;;;;;;;5074681;28;20286;-86
2024/02/07 09:00:01;;;;;;;;;;;;;;;;;;5073412;28;19974;-84
2024/02/07 09:02:27;;;;;;;;;;;;;;;;;;5076533;28;19928;-87
2024/02/07 09:04:54;;;;;;;;;;;;;;;;;;5078749;28;20022;-84
2024/02/07 09:07:20;;;;;;;;;;;;;;;;;;5081298;28;19924;-85
2024/02/07 09:09:48;;;;;;;;;;;;;;;;;;5084968;28;19932;-86
2024/02/07 09:12:14;;;;;;;;;;;;;;;;;;5076855;28;19924;-84
2024/02/07 09:14:40;;;;;;;;;;;;;;;;;;5066831;28;19924;-83
2024/02/07 09:17:07;;;;;;;;;;;;;;;;;;5072594;28;20396;-84
2024/02/07 09:19:34;;;;;;;;;;;;;;;;;;5088840;28;19924;-85
2024/02/07 09:22:01;;;;;;;;;;;;;;;;;;5064180;28;20439;-86
2024/02/07 09:24:33;;;;;;;;;;;;;;;;;;5078930;28;19928;-84
2024/02/07 09:27:00;;;;;;;;;;;;;;;;;;5080243;28;19925;-83
2024/02/07 09:29:27;;;;;;;;;;;;;;;;;;5070683;28;19975;-84
2024/02/07 09:31:53;;;;;;;;;;;;;;;;;;5080661;28;19924;-84
2024/02/07 09:34:20;;;;;;;;;;;;;;;;;;5080652;28;19924;-83
2024/02/07 09:36:46;;;;;;;;;;;;;;;;;;5077463;28;19932;-83
2024/02/07 09:39:13;;;;;;;;;;;;;;;;;;5085189;28;20019;-84
2024/02/07 09:41:40;;;;;;;;;;;;;;;;;;5081720;28;20103;-84
2024/02/07 09:44:07;;;;;;;;;;;;;;;;;;5080616;28;20094;-84
2024/02/07 09:46:33;;;;;;;;;;;;;;;;;;5075327;28;19972;-82
2024/02/07 09:49:00;;;;;;;;;;;;;;;;;;5081483;28;20434;-84
2024/02/07 09:51:26;;;;;;;;;;;;;;;;;;5076124;28;19932;-83
2024/02/07 09:53:53;;;;;;;;;;;;;;;;;;5079758;28;20014;-84
2024/02/07 09:56:22;;;;;;;;;;;;;;;;;;5082851;28;19932;-83
2024/02/07 09:58:51;;;;;;;;;;;;;;;;;;5086781;28;19977;-82
2024/02/07 10:01:18;;;;;;;;;;;;;;;;;;5085263;28;19924;-83
2024/02/07 10:03:45;;;;;;;;;;;;;;;;;;5068060;28;19925;-84
2024/02/07 10:06:12;;;;;;;;;;;;;;;;;;5077213;28;20300;-84
2024/02/07 10:08:39;;;;;;;;;;;;;;;;;;5061252;28;20384;-85
2024/02/07 10:11:06;;;;;;;;;;;;;;;;;;5076082;28;19935;-84
2024/02/07 10:13:33;;;;;;;;;;;;;;;;;;5077057;28;19971;-83
2024/02/07 10:16:00;;;;;;;;;;;;;;;;;;5074985;28;20009;-84
2024/02/07 10:18:28;;;;;;;;;;;;;;;;;;5079237;28;19924;-83
2024/02/07 10:20:55;;;;;;;;;;;;;;;;;;5076885;28;19931;-83
2024/02/07 10:23:24;;;;;;;;;;;;;;;;;;5065133;28;20405;-85
2024/02/07 10:25:53;;;;;;;;;;;;;;;;;;5065508;28;19931;-84
2024/02/07 10:28:20;;;;;;;;;;;;;;;;;;5065194;28;20373;-85
2024/02/07 10:30:47;;;;;;;;;;;;;;;;;;5062510;28;20353;-86
2024/02/07 10:33:13;;;;;;;;;;;;;;;;;;5067573;28;19924;-86
2024/02/07 10:35:47;;;;;;;;;;;;;;;;;;5082743;28;19924;-86
2024/02/07 10:38:13;;;;;;;;;;;;;;;;;;5082109;28;20012;-85
2024/02/07 10:40:40;;;;;;;;;;;;;;;;;;5074719;28;19931;-84
2024/02/07 10:43:07;;;;;;;;;;;;;;;;;;5072770;28;20389;-85
2024/02/07 10:45:33;;;;;;;;;;;;;;;;;;5080643;28;19928;-85
2024/02/07 10:48:00;;;;;;;;;;;;;;;;;;5077842;28;19924;-83
2024/02/07 10:50:27;;;;;;;;;;;;;;;;;;5063311;28;19928;-84
2024/02/07 10:52:53;;;;;;;;;;;;;;;;;;5072556;28;20427;-83
2024/02/07 10:55:21;;;;;;;;;;;;;;;;;;5069755;28;19932;-84
2024/02/07 10:57:48;;;;;;;;;;;;;;;;;;5059877;28;19964;-81
2024/02/07 11:00:15;;;;;;;;;;;;;;;;;;5075099;28;19924;-83
2024/02/07 11:02:45;;;;;;;;;;;;;;;;;;5060796;28;20308;-83
2024/02/07 11:05:12;;;;;;;;;;;;;;;;;;5060723;28;19929;-85
2024/02/07 11:07:39;;;;;;;;;;;;;;;;;;5083034;28;20424;-84
2024/02/07 11:10:05;;;;;;;;;;;;;;;;;;5074040;28;20012;-83
2024/02/07 11:12:35;;;;;;;;;;;;;;;;;;5085228;28;20276;-82
2024/02/07 11:15:02;;;;;;;;;;;;;;;;;;5080718;28;19978;-83
2024/02/07 11:17:29;;;;;;;;;;;;;;;;;;5080437;28;19924;-84
2024/02/07 11:19:58;;;;;;;;;;;;;;;;;;5074129;28;20015;-83
2024/02/07 11:22:24;;;;;;;;;;;;;;;;;;5080541;28;19924;-84
2024/02/07 11:24:51;;;;;;;;;;;;;;;;;;5080518;28;19936;-84
2024/02/07 11:27:21;;;;;;;;;;;;;;;;;;5083334;28;19931;-82
2024/02/07 11:29:47;;;;;;;;;;;;;;;;;;5080554;28;19932;-84
2024/02/07 11:32:14;;;;;;;;;;;;;;;;;;5082561;28;19930;-85
2024/02/07 11:34:40;;;;;;;;;;;;;;;;;;5063365;28;20311;-83
2024/02/07 11:37:07;;;;;;;;;;;;;;;;;;5077647;28;20286;-84
2024/02/07 11:39:33;;;;;;;;;;;;;;;;;;5080300;28;19924;-83
2024/02/07 11:42:00;;;;;;;;;;;;;;;;;;5082142;28;19946;-84
2024/02/07 11:44:27;;;;;;;;;;;;;;;;;;5088080;28;19928;-82
2024/02/07 11:46:56;;;;;;;;;;;;;;;;;;5072573;28;19929;-84
2024/02/07 11:49:28;;;;;;;;;;;;;;;;;;5085347;28;20016;-83
2024/02/07 11:51:55;;;;;;;;;;;;;;;;;;5081852;28;19924;-84
2024/02/07 11:54:21;;;;;;;;;;;;;;;;;;5068864;28;19955;-83
2024/02/07 11:56:48;;;;;;;;;;;;;;;;;;5083808;28;19975;-81
2024/02/07 11:59:14;;;;;;;;;;;;;;;;;;5080249;28;19928;-84
2024/02/07 12:01:43;;;;;;;;;;;;;;;;;;5084462;28;19924;-83
2024/02/07 12:04:16;;;;;;;;;;;;;;;;;;5078361;28;19946;-85
2024/02/07 12:06:45;;;;;;;;;;;;;;;;;;5068003;28;19989;-85
2024/02/07 12:09:16;;;;;;;;;;;;;;;;;;5074147;28;19929;-82
2024/02/07 12:11:42;;;;;;;;;;;;;;;;;;5069021;28;19928;-84
2024/02/07 12:14:09;;;;;;;;;;;;;;;;;;5080922;28;19929;-82
2024/02/07 12:16:39;;;;;;;;;;;;;;;;;;5078383;28;19925;-82
2024/02/07 12:19:10;;;;;;;;;;;;;;;;;;5078620;28;19924;-84
2024/02/07 12:21:37;;;;;;;;;;;;;;;;;;5079827;28;19935;-83
2024/02/07 12:24:05;;;;;;;;;;;;;;;;;;5055820;28;19925;-82
2024/02/07 12:26:32;;;;;;;;;;;;;;;;;;5079425;28;19990;-85
2024/02/07 12:29:02;;;;;;;;;;;;;;;;;;5082610;28;19932;-84
2024/02/07 12:31:29;;;;;;;;;;;;;;;;;;5066486;28;20000;-83
2024/02/07 12:33:55;;;;;;;;;;;;;;;;;;5082624;28;19955;-83
2024/02/07 12:36:22;;;;;;;;;;;;;;;;;;5080048;28;19924;-82
2024/02/07 12:38:48;;;;;;;;;;;;;;;;;;5079376;28;20004;-82
2024/02/07 12:41:15;;;;;;;;;;;;;;;;;;5073180;28;20002;-83
2024/02/07 12:43:41;;;;;;;;;;;;;;;;;;5077966;28;19928;-84
2024/02/07 12:46:09;;;;;;;;;;;;;;;;;;5080221;28;19924;-81
2024/02/07 12:48:35;;;;;;;;;;;;;;;;;;5080535;28;19935;-83
2024/02/07 12:51:02;;;;;;;;;;;;;;;;;;5079272;28;20034;-83
2024/02/07 12:53:29;;;;;;;;;;;;;;;;;;5062503;28;20019;-83
2024/02/07 12:55:55;;;;;;;;;;;;;;;;;;5075539;28;20500;-84
2024/02/07 12:58:22;;;;;;;;;;;;;;;;;;5080220;28;19928;-82
2024/02/07 13:00:48;;;;;;;;;;;;;;;;;;5062596;28;20019;-82
2024/02/07 13:03:15;;;;;;;;;;;;;;;;;;5061752;28;19928;-82
2024/02/07 13:05:42;;;;;;;;;;;;;;;;;;5081327;28;19946;-82
2024/02/07 13:08:10;;;;;;;;;;;;;;;;;;5086597;28;19924;-81
2024/02/07 13:10:40;;;;;;;;;;;;;;;;;;5055794;28;19953;-80
2024/02/07 13:13:07;;;;;;;;;;;;;;;;;;5068278;28;19932;-83
2024/02/07 13:15:33;;;;;;;;;;;;;;;;;;5083967;28;19932;-80
2024/02/07 13:18:02;;;;;;;;;;;;;;;;;;5072752;28;20351;-82
2024/02/07 13:20:28;;;;;;;;;;;;;;;;;;5084383;28;19924;-82
2024/02/07 13:22:55;;;;;;;;;;;;;;;;;;5080225;28;20404;-83
2024/02/07 13:25:23;;;;;;;;;;;;;;;;;;5053565;28;20377;-83
2024/02/07 13:27:50;;;;;;;;;;;;;;;;;;5074461;28;19924;-82
2024/02/07 13:30:16;;;;;;;;;;;;;;;;;;5071174;28;19924;-83
2024/02/07 13:32:44;;;;;;;;;;;;;;;;;;5085495;28;20015;-82
2024/02/07 13:35:11;;;;;;;;;;;;;;;;;;5081360;28;20274;-84
2024/02/07 13:37:38;;;;;;;;;;;;;;;;;;5065624;28;20005;-83
2024/02/07 13:40:04;;;;;;;;;;;;;;;;;;5056880;28;19932;-82
2024/02/07 13:42:31;;;;;;;;;;;;;;;;;;5060491;28;19970;-83
2024/02/07 13:44:57;;;;;;;;;;;;;;;;;;5064201;28;20404;-84
2024/02/07 13:47:24;;;;;;;;;;;;;;;;;;5074985;28;19924;-82
2024/02/07 13:49:51;;;;;;;;;;;;;;;;;;5060228;28;19978;-83
2024/02/07 13:52:17;;;;;;;;;;;;;;;;;;5081072;28;19935;-82
2024/02/07 13:54:44;;;;;;;;;;;;;;;;;;5064084;28;19931;-82
2024/02/07 13:57:11;;;;;;;;;;;;;;;;;;5061076;28;20395;-83
2024/02/07 13:59:37;;;;;;;;;;;;;;;;;;5080333;28;20450;-84
2024/02/07 14:02:03;;;;;;;;;;;;;;;;;;5082623;28;19996;-83
2024/02/07 14:04:30;;;;;;;;;;;;;;;;;;5075667;28;20031;-83
2024/02/07 14:06:56;;;;;;;;;;;;;;;;;;5064900;28;20619;-84
2024/02/07 14:09:23;;;;;;;;;;;;;;;;;;5076068;28;19931;-84
2024/02/07 14:11:49;;;;;;;;;;;;;;;;;;5066627;28;19924;-84
2024/02/07 14:14:16;;;;;;;;;;;;;;;;;;5073546;28;19938;-85
2024/02/07 14:16:42;;;;;;;;;;;;;;;;;;5076355;28;20385;-82
2024/02/07 14:19:09;;;;;;;;;;;;;;;;;;5070328;28;19932;-82
2024/02/07 14:21:35;;;;;;;;;;;;;;;;;;5079981;28;19924;-82
2024/02/07 14:24:03;;;;;;;;;;;;;;;;;;5076716;28;19938;-83
2024/02/07 14:26:31;;;;;;;;;;;;;;;;;;5066000;28;19924;-83
2024/02/07 14:28:57;;;;;;;;;;;;;;;;;;5081761;28;19928;-82
2024/02/07 14:31:24;;;;;;;;;;;;;;;;;;5079942;28;20011;-83
2024/02/07 14:33:50;;;;;;;;;;;;;;;;;;5079022;28;19978;-81
2024/02/07 14:36:17;;;;;;;;;;;;;;;;;;5073243;28;19959;-84
2024/02/07 14:38:43;;;;;;;;;;;;;;;;;;5060814;28;19925;-84
2024/02/07 14:41:10;;;;;;;;;;;;;;;;;;5071958;28;19963;-84
2024/02/07 14:43:36;;;;;;;;;;;;;;;;;;5081632;28;20262;-82
2024/02/07 14:46:03;;;;;;;;;;;;;;;;;;5044260;28;19925;-81
2024/02/07 14:48:29;;;;;;;;;;;;;;;;;;5083514;28;20011;-83
2024/02/07 14:50:56;;;;;;;;;;;;;;;;;;5061790;28;19987;-83
2024/02/07 14:53:22;;;;;;;;;;;;;;;;;;5077908;28;20288;-82
2024/02/07 14:55:49;;;;;;;;;;;;;;;;;;5081578;28;19928;-82
2024/02/07 14:58:15;;;;;;;;;;;;;;;;;;5074693;28;20007;-83
2024/02/07 15:00:42;;;;;;;;;;;;;;;;;;5079432;28;20372;-81
2024/02/07 15:03:11;;;;;;;;;;;;;;;;;;5075459;28;20270;-83
2024/02/07 15:05:37;;;;;;;;;;;;;;;;;;5055964;28;19936;-82
2024/02/07 15:08:04;;;;;;;;;;;;;;;;;;5069335;28;19928;-84
2024/02/07 15:10:30;;;;;;;;;;;;;;;;;;5080872;28;19939;-82
2024/02/07 15:12:57;;;;;;;;;;;;;;;;;;5083115;28;20024;-84
2024/02/07 15:15:23;;;;;;;;;;;;;;;;;;5088910;28;19964;-82
2024/02/07 15:17:50;;;;;;;;;;;;;;;;;;5086781;28;19985;-83
2024/02/07 15:20:16;;;;;;;;;;;;;;;;;;5078835;28;20308;-82
2024/02/07 15:22:43;;;;;;;;;;;;;;;;;;5084859;28;19928;-84
2024/02/07 15:25:09;;;;;;;;;;;;;;;;;;5079983;28;20013;-84
2024/02/07 15:27:36;;;;;;;;;;;;;;;;;;5084826;28;19924;-83
2024/02/07 15:30:06;;;;;;;;;;;;;;;;;;5063913;28;19931;-82
2024/02/07 15:32:32;;;;;;;;;;;;;;;;;;5079330;28;19970;-83
2024/02/07 15:34:59;;;;;;;;;;;;;;;;;;5089911;28;19970;-82
2024/02/07 15:37:25;;;;;;;;;;;;;;;;;;5077182;28;20337;-82
2024/02/07 15:39:52;;;;;;;;;;;;;;;;;;5081739;28;19966;-82
2024/02/07 15:42:18;;;;;;;;;;;;;;;;;;5069895;28;19939;-81
2024/02/07 15:44:45;;;;;;;;;;;;;;;;;;5084108;28;20288;-83
2024/02/07 15:47:16;;;;;;;;;;;;;;;;;;5069620;28;19932;-83
2024/02/07 15:49:42;;;;;;;;;;;;;;;;;;5082809;28;19932;-84
2024/02/07 15:52:11;;;;;;;;;;;;;;;;;;5082765;28;20073;-82
2024/02/07 15:54:38;;;;;;;;;;;;;;;;;;5078649;28;20389;-85
2024/02/07 15:57:04;;;;;;;;;;;;;;;;;;5061913;28;19993;-82
2024/02/07 15:59:31;;;;;;;;;;;;;;;;;;5075084;28;19960;-82
2024/02/07 16:01:57;;;;;;;;;;;;;;;;;;5080035;28;19935;-83
2024/02/07 16:04:24;;;;;;;;;;;;;;;;;;5084117;28;20284;-82
2024/02/07 16:06:50;;;;;;;;;;;;;;;;;;5079662;28;19925;-83
2024/02/07 16:09:17;;;;;;;;;;;;;;;;;;5080100;28;19924;-84
2024/02/07 16:11:44;;;;;;;;;;;;;;;;;;5080153;28;19931;-83
2024/02/07 16:14:10;;;;;;;;;;;;;;;;;;5075608;28;20357;-83
2024/02/07 16:16:39;;;;;;;;;;;;;;;;;;5086063;28;19932;-81
2024/02/07 16:19:06;;;;;;;;;;;;;;;;;;5054916;28;19973;-81
2024/02/07 16:21:32;;;;;;;;;;;;;;;;;;5047812;28;19936;-82
2024/02/07 16:23:59;;;;;;;;;;;;;;;;;;5064931;28;20292;-81
2024/02/07 16:26:25;;;;;;;;;;;;;;;;;;5076650;28;19928;-81
2024/02/07 16:28:52;;;;;;;;;;;;;;;;;;5074509;28;19931;-82
2024/02/07 16:31:18;;;;;;;;;;;;;;;;;;5076363;28;19925;-83
2024/02/07 16:33:44;;;;;;;;;;;;;;;;;;5081313;28;20780;-82
2024/02/07 16:36:11;;;;;;;;;;;;;;;;;;5078307;28;19928;-81
2024/02/07 16:38:37;;;;;;;;;;;;;;;;;;5062157;28;19963;-82
2024/02/07 16:41:04;;;;;;;;;;;;;;;;;;5080804;28;20403;-82
2024/02/07 16:43:30;;;;;;;;;;;;;;;;;;5076991;28;20381;-83
2024/02/07 16:45:57;;;;;;;;;;;;;;;;;;5078249;28;20022;-83
2024/02/07 16:48:23;;;;;;;;;;;;;;;;;;5076235;28;19974;-82
2024/02/07 16:50:50;;;;;;;;;;;;;;;;;;5080452;28;19977;-81
2024/02/07 16:53:16;;;;;;;;;;;;;;;;;;5083584;28;19974;-82
2024/02/07 16:55:43;;;;;;;;;;;;;;;;;;5081888;28;20446;-83
2024/02/07 16:58:09;;;;;;;;;;;;;;;;;;5077756;28;19928;-82
2024/02/07 17:00:36;;;;;;;;;;;;;;;;;;5075952;28;20027;-81
2024/02/07 17:03:03;;;;;;;;;;;;;;;;;;5075857;28;19932;-82
2024/02/07 17:05:29;;;;;;;;;;;;;;;;;;5063200;28;20414;-80
2024/02/07 17:07:56;;;;;;;;;;;;;;;;;;5061280;28;19960;-80
2024/02/07 17:10:23;;;;;;;;;;;;;;;;;;5078879;28;19931;-83
2024/02/07 17:12:49;;;;;;;;;;;;;;;;;;5065091;28;20017;-81
2024/02/07 17:15:16;;;;;;;;;;;;;;;;;;5083595;28;19924;-80
2024/02/07 17:17:43;;;;;;;;;;;;;;;;;;5078416;28;19977;-82
2024/02/07 17:20:09;;;;;;;;;;;;;;;;;;5054838;28;19924;-81
2024/02/07 17:22:36;;;;;;;;;;;;;;;;;;5062101;28;19925;-83
2024/02/07 17:25:02;;;;;;;;;;;;;;;;;;5082580;28;19931;-81
2024/02/07 17:27:29;;;;;;;;;;;;;;;;;;5076455;28;19929;-81
2024/02/07 17:29:55;;;;;;;;;;;;;;;;;;5080929;28;20302;-82
2024/02/07 17:32:28;;;;;;;;;;;;;;;;;;5072578;28;19932;-83
2024/02/07 17:34:54;;;;;;;;;;;;;;;;;;5079275;28;19929;-82
2024/02/07 17:37:21;;;;;;;;;;;;;;;;;;5076342;28;19956;-83
2024/02/07 17:39:48;;;;;;;;;;;;;;;;;;5075955;28;19928;-81
2024/02/07 17:42:14;;;;;;;;;;;;;;;;;;5073054;28;20385;-81
2024/02/07 17:44:43;;;;;;;;;;;;;;;;;;5064482;28;20281;-82
2024/02/07 17:47:11;;;;;;;;;;;;;;;;;;5071250;28;20301;-82
2024/02/07 17:49:38;;;;;;;;;;;;;;;;;;5080750;28;20715;-82